This is the latest recevied weather packets stored in our database for station/object DO6MJ-1. If no packets are shown the sender has not sent any weather packets the latest 1 day(s).
| Time | Temp. | Humidity | Pressure | Rain* | Wind** | Luminosity | Snow |
|---|---|---|---|---|---|---|---|
| 1778097814 | 8.33° C | 95% | 1001.4 hPa | 0.51 mm | - | - | - |
| 1778096614 | 8.89° C | 95% | 1001.1 hPa | 0 mm | - | - | - |
| 1778094213 | 8.89° C | 95% | 1000.6 hPa | 1.52 mm | - | - | - |
| 1778093013 | 8.89° C | 95% | 1000.4 hPa | 2.03 mm | - | - | - |
| 1778089412 | 9.44° C | 95% | 1000.2 hPa | 0.51 mm | - | - | - |
| 1778088212 | 9.44° C | 95% | 999.9 hPa | 1.02 mm | - | - | - |
| 1778084611 | 9.44° C | 95% | 999.8 hPa | 1.02 mm | - | - | - |
| 1778079810 | 9.44° C | 94% | 999.8 hPa | 0 mm | - | - | - |
| 1778076209 | 9.44° C | 94% | 999.9 hPa | 0.51 mm | - | - | - |
| 1778069007 | 9.44° C | 94% | 999.7 hPa | 0 mm | - | - | - |
| 1778067807 | 9.44° C | 94% | 999.9 hPa | 0 mm | - | - | - |
| 1778060605 | 8.33° C | 95% | 999.4 hPa | 1.52 mm | - | - | - |
| 1778059405 | 8.33° C | 95% | 999.4 hPa | 1.52 mm | - | - | - |
| 1778058207 | 7.78° C | 95% | 999.5 hPa | 1.52 mm | - | - | - |
| 1778055804 | 7.22° C | 94% | 999.2 hPa | 1.52 mm | - | - | - |
| 1778054604 | 7.22° C | 94% | 999.3 hPa | 1.52 mm | - | - | - |
| 1778052203 | 7.22° C | 94% | 998.9 hPa | 1.52 mm | - | - | - |
| 1778051003 | 7.22° C | 94% | 999.1 hPa | 2.03 mm | - | - | - |
| 1778048602 | 7.22° C | 94% | 998.8 hPa | 2.03 mm | - | - | - |
| 1778046202 | 7.22° C | 94% | 998.7 hPa | 2.03 mm | - | - | - |
| 1778045001 | 7.78° C | 94% | 998.8 hPa | 2.03 mm | - | - | - |
| 1778043801 | 7.78° C | 94% | 998.9 hPa | 2.03 mm | - | - | - |
| 1778042601 | 7.78° C | 94% | 998.8 hPa | 2.03 mm | - | - | - |
| 1778040200 | 8.33° C | 93% | 998.9 hPa | 1.52 mm | - | - | - |
| 1778039000 | 8.33° C | 93% | 999 hPa | 1.52 mm | - | - | - |
* Rain latest hour (hover to see other rain measurements)
** Current wind speed in m/s (hover to see current wind gust speed)